Home > Products > Valid Products > TAF

000
FTUS43 KOAX 282320
TAFOMA
TAF
KOMA 282320Z 0100/0124 16010KT P6SM SCT015 BKN025
      TEMPO 0100/0102 4SM -SN
     FM010900 17006KT P6SM SCT025 BKN100
     FM011800 31008KT P6SM OVC100=



000
FTUS43 KOAX 282320
TAFLNK
TAF
KLNK 282320Z 0100/0124 18010KT P6SM BKN025
     FM010800 22004KT P6SM SCT025 OVC100
     FM011800 31010KT P6SM BKN100=



000
FTUS43 KOAX 282320
TAFOMA
TAF
KOMA 282320Z 0100/0124 16010KT P6SM SCT015 BKN025
      TEMPO 0100/0102 4SM -SN
     FM010900 17006KT P6SM SCT025 BKN100
     FM011800 31008KT P6SM OVC100=



000
FTUS43 KOAX 282320
TAFLNK
TAF
KLNK 282320Z 0100/0124 18010KT P6SM BKN025
     FM010800 22004KT P6SM SCT025 OVC100
     FM011800 31010KT P6SM BKN100=



000
FTUS43 KOAX 282320
TAFOFK
TAF
KOFK 282320Z 0100/0124 20010KT P6SM SCT035
     FM011100 30008KT P6SM SCT050 OVC100=



000
FTUS43 KOAX 282320
TAFLNK
TAF
KLNK 282320Z 0100/0124 18010KT P6SM BKN025
     FM010800 22004KT P6SM SCT025 OVC100
     FM011800 31010KT P6SM BKN100=



000
FTUS43 KOAX 282320
TAFOFK
TAF
KOFK 282320Z 0100/0124 20010KT P6SM SCT035
     FM011100 30008KT P6SM SCT050 OVC100=



000
FTUS43 KOAX 282320
TAFOMA
TAF
KOMA 282320Z 0100/0124 16010KT P6SM SCT015 BKN025
      TEMPO 0100/0102 4SM -SN
     FM010900 17006KT P6SM SCT025 BKN100
     FM011800 31008KT P6SM OVC100=



000
FTUS43 KOAX 282320
TAFOFK
TAF
KOFK 282320Z 0100/0124 20010KT P6SM SCT035
     FM011100 30008KT P6SM SCT050 OVC100=



000
FTUS43 KOAX 282147 AAA
TAFLNK
TAF AMD
KLNK 282147Z 2822/0118 18010KT P6SM BKN020 OVC030
      TEMPO 2822/2824 4SM -SN BR
     FM010300 16008KT P6SM OVC050
     FM010800 22004KT P6SM OVC100=



000
FTUS43 KOAX 282147 AAA
TAFLNK
TAF AMD
KLNK 282147Z 2822/0118 18010KT P6SM BKN020 OVC030
      TEMPO 2822/2824 4SM -SN BR
     FM010300 16008KT P6SM OVC050
     FM010800 22004KT P6SM OVC100=



000
FTUS43 KOAX 282147 AAA
TAFLNK
TAF AMD
KLNK 282147Z 2822/0118 18010KT P6SM BKN020 OVC030
      TEMPO 2822/2824 4SM -SN BR
     FM010300 16008KT P6SM OVC050
     FM010800 22004KT P6SM OVC100=



000
FTUS43 KOAX 282147 AAA
TAFLNK
TAF AMD
KLNK 282147Z 2822/0118 18010KT P6SM BKN020 OVC030
      TEMPO 2822/2824 4SM -SN BR
     FM010300 16008KT P6SM OVC050
     FM010800 22004KT P6SM OVC100=



000
FTUS43 KOAX 281915 AAA
TAFOFK
TAF AMD
KOFK 281915Z 2819/0118 19015KT P6SM SCT025 OVC060
     FM010000 18008KT P6SM OVC050
     FM010900 24006KT P6SM OVC100=



000
FTUS43 KOAX 281915 AAA
TAFOFK
TAF AMD
KOFK 281915Z 2819/0118 19015KT P6SM SCT025 OVC060
     FM010000 18008KT P6SM OVC050
     FM010900 24006KT P6SM OVC100=



000
FTUS43 KOAX 281720
TAFOMA
TAF
KOMA 281720Z 2818/0118 18011KT P6SM BKN030
      TEMPO 2818/2820 4SM -SN
     FM282000 17010KT P6SM OVC010
      TEMPO 2820/2824 4SM -SN
     FM010200 16007KT P6SM OVC050
     FM010600 18006KT P6SM OVC100
     FM011000 24006KT P6SM OVC100=



000
FTUS43 KOAX 281720
TAFOFK
TAF
KOFK 281720Z 2818/0118 18015G21KT P6SM BKN016
     FM010000 18008KT P6SM OVC050
     FM010900 24006KT P6SM OVC100=



000
FTUS43 KOAX 281720
TAFOFK
TAF
KOFK 281720Z 2818/0118 18015G21KT P6SM BKN016
     FM010000 18008KT P6SM OVC050
     FM010900 24006KT P6SM OVC100=



000
FTUS43 KOAX 281720
TAFLNK
TAF
KLNK 281720Z 2818/0118 18010KT 3SM -SN BKN025 OVC035
      TEMPO 2818/2821 1SM -SN BR OVC012
     FM282100 17011KT P6SM OVC012
      TEMPO 2821/2824 4SM -SN
     FM010300 16008KT P6SM OVC050
     FM010800 22004KT P6SM OVC100=



000
FTUS43 KOAX 281720
TAFOMA
TAF
KOMA 281720Z 2818/0118 18011KT P6SM BKN030
      TEMPO 2818/2820 4SM -SN
     FM282000 17010KT P6SM OVC010
      TEMPO 2820/2824 4SM -SN
     FM010200 16007KT P6SM OVC050
     FM010600 18006KT P6SM OVC100
     FM011000 24006KT P6SM OVC100=



000
FTUS43 KOAX 281720
TAFOFK
TAF
KOFK 281720Z 2818/0118 18015G21KT P6SM BKN016
     FM010000 18008KT P6SM OVC050
     FM010900 24006KT P6SM OVC100=



000
FTUS43 KOAX 281720
TAFLNK
TAF
KLNK 281720Z 2818/0118 18010KT 3SM -SN BKN025 OVC035
      TEMPO 2818/2821 1SM -SN BR OVC012
     FM282100 17011KT P6SM OVC012
      TEMPO 2821/2824 4SM -SN
     FM010300 16008KT P6SM OVC050
     FM010800 22004KT P6SM OVC100=



000
FTUS43 KOAX 281720
TAFLNK
TAF
KLNK 281720Z 2818/0118 18010KT 3SM -SN BKN025 OVC035
      TEMPO 2818/2821 1SM -SN BR OVC012
     FM282100 17011KT P6SM OVC012
      TEMPO 2821/2824 4SM -SN
     FM010300 16008KT P6SM OVC050
     FM010800 22004KT P6SM OVC100=



000
FTUS43 KOAX 281720
TAFOMA
TAF
KOMA 281720Z 2818/0118 18011KT P6SM BKN030
      TEMPO 2818/2820 4SM -SN
     FM282000 17010KT P6SM OVC010
      TEMPO 2820/2824 4SM -SN
     FM010200 16007KT P6SM OVC050
     FM010600 18006KT P6SM OVC100
     FM011000 24006KT P6SM OVC100=



000
FTUS43 KOAX 281720
TAFOFK
TAF
KOFK 281720Z 2818/0118 18015G21KT P6SM BKN016
     FM010000 18008KT P6SM OVC050
     FM010900 24006KT P6SM OVC100=



000
FTUS43 KOAX 281720
TAFOMA
TAF
KOMA 281720Z 2818/0118 18011KT P6SM BKN030
      TEMPO 2818/2820 4SM -SN
     FM282000 17010KT P6SM OVC010
      TEMPO 2820/2824 4SM -SN
     FM010200 16007KT P6SM OVC050
     FM010600 18006KT P6SM OVC100
     FM011000 24006KT P6SM OVC100=



000
FTUS43 KOAX 281720
TAFLNK
TAF
KLNK 281720Z 2818/0118 18010KT 3SM -SN BKN025 OVC035
      TEMPO 2818/2821 1SM -SN BR OVC012
     FM282100 17011KT P6SM OVC012
      TEMPO 2821/2824 4SM -SN
     FM010300 16008KT P6SM OVC050
     FM010800 22004KT P6SM OVC100=



000
FTUS43 KOAX 281647 AAA
TAFLNK
TAF AMD
KLNK 281647Z 2817/0112 16004KT 5SM -SN BR BKN018 OVC030
      TEMPO 2817/2820 2SM -SN
     FM282000 17011KT 3SM -SN OVC012
     FM010300 16008KT P6SM OVC050
     FM010800 22004KT P6SM OVC100=



000
FTUS43 KOAX 281647 AAA
TAFLNK
TAF AMD
KLNK 281647Z 2817/0112 16004KT 5SM -SN BR BKN018 OVC030
      TEMPO 2817/2820 2SM -SN
     FM282000 17011KT 3SM -SN OVC012
     FM010300 16008KT P6SM OVC050
     FM010800 22004KT P6SM OVC100=



000
FTUS43 KOAX 281538 AAA
TAFOFK
TAF AMD
KOFK 281538Z 2816/0112 18014KT P6SM BKN011
     FM010000 18008KT P6SM OVC050
     FM010900 VRB03KT P6SM OVC100=



000
FTUS43 KOAX 281159
TAFLNK
TAF
KLNK 281159Z 2812/0112 16004KT P6SM SCT250
     FM281300 17008KT P6SM OVC050
     FM282000 17011KT 3SM -SN OVC012
     FM010300 16008KT P6SM OVC050
     FM010800 22004KT P6SM OVC100=



000
FTUS43 KOAX 281159
TAFOFK
TAF
KOFK 281159Z 2812/0112 17009KT P6SM SCT250
     FM281500 18012KT P6SM OVC050 PROB30 2821/2824 5SM -SN OVC015
     FM010000 18008KT P6SM OVC050
     FM010900 VRB03KT P6SM OVC100=



000
FTUS43 KOAX 281159
TAFOMA
TAF
KOMA 281159Z 2812/0112 13005KT P6SM SCT250
     FM281600 15009KT P6SM OVC050
     FM282100 17010KT 3SM -SN OVC010
     FM010200 16007KT P6SM OVC025 PROB30 0102/0104 5SM -SN OVC020
     FM010600 18006KT P6SM OVC050
     FM011000 18006KT P6SM OVC100=



000
FTUS43 KOAX 281159
TAFOFK
TAF
KOFK 281159Z 2812/0112 17009KT P6SM SCT250
     FM281500 18012KT P6SM OVC050 PROB30 2821/2824 5SM -SN OVC015
     FM010000 18008KT P6SM OVC050
     FM010900 VRB03KT P6SM OVC100=



000
FTUS43 KOAX 281159
TAFLNK
TAF
KLNK 281159Z 2812/0112 16004KT P6SM SCT250
     FM281300 17008KT P6SM OVC050
     FM282000 17011KT 3SM -SN OVC012
     FM010300 16008KT P6SM OVC050
     FM010800 22004KT P6SM OVC100=



000
FTUS43 KOAX 281159
TAFLNK
TAF
KLNK 281159Z 2812/0112 16004KT P6SM SCT250
     FM281300 17008KT P6SM OVC050
     FM282000 17011KT 3SM -SN OVC012
     FM010300 16008KT P6SM OVC050
     FM010800 22004KT P6SM OVC100=



000
FTUS43 KOAX 281159
TAFOMA
TAF
KOMA 281159Z 2812/0112 13005KT P6SM SCT250
     FM281600 15009KT P6SM OVC050
     FM282100 17010KT 3SM -SN OVC010
     FM010200 16007KT P6SM OVC025 PROB30 0102/0104 5SM -SN OVC020
     FM010600 18006KT P6SM OVC050
     FM011000 18006KT P6SM OVC100=



000
FTUS43 KOAX 281159
TAFOFK
TAF
KOFK 281159Z 2812/0112 17009KT P6SM SCT250
     FM281500 18012KT P6SM OVC050 PROB30 2821/2824 5SM -SN OVC015
     FM010000 18008KT P6SM OVC050
     FM010900 VRB03KT P6SM OVC100=



000
FTUS43 KOAX 281159
TAFOMA
TAF
KOMA 281159Z 2812/0112 13005KT P6SM SCT250
     FM281600 15009KT P6SM OVC050
     FM282100 17010KT 3SM -SN OVC010
     FM010200 16007KT P6SM OVC025 PROB30 0102/0104 5SM -SN OVC020
     FM010600 18006KT P6SM OVC050
     FM011000 18006KT P6SM OVC100=



000
FTUS43 KOAX 281159
TAFOMA
TAF
KOMA 281159Z 2812/0112 13005KT P6SM SCT250
     FM281600 15009KT P6SM OVC050
     FM282100 17010KT 3SM -SN OVC010
     FM010200 16007KT P6SM OVC025 PROB30 0102/0104 5SM -SN OVC020
     FM010600 18006KT P6SM OVC050
     FM011000 18006KT P6SM OVC100=



000
FTUS43 KOAX 281159
TAFLNK
TAF
KLNK 281159Z 2812/0112 16004KT P6SM SCT250
     FM281300 17008KT P6SM OVC050
     FM282000 17011KT 3SM -SN OVC012
     FM010300 16008KT P6SM OVC050
     FM010800 22004KT P6SM OVC100=



000
FTUS43 KOAX 281159
TAFOFK
TAF
KOFK 281159Z 2812/0112 17009KT P6SM SCT250
     FM281500 18012KT P6SM OVC050 PROB30 2821/2824 5SM -SN OVC015
     FM010000 18008KT P6SM OVC050
     FM010900 VRB03KT P6SM OVC100=



000
FTUS43 KOAX 280521
TAFLNK
TAF
KLNK 280521Z 2806/0106 16007KT P6SM BKN100
     FM281300 17008KT P6SM OVC050 PROB30 2818/2820 5SM -SN OVC015
     FM282000 17011KT 3SM -SN OVC012
     FM010000 16008KT P6SM OVC050=



000
FTUS43 KOAX 280521
TAFOMA
TAF
KOMA 280521Z 2806/0106 14006KT P6SM BKN120
     FM281400 15009KT P6SM OVC050 PROB30 2819/2821 5SM -SN OVC015
     FM282100 17010KT 3SM -SN OVC010
     FM010200 16007KT P6SM OVC050=



000
FTUS43 KOAX 280521
TAFOFK
TAF
KOFK 280521Z 2806/0106 16009KT P6SM BKN120
     FM281500 18012KT P6SM OVC050 PROB30 2821/2824 5SM -SN OVC015
     FM010000 18008KT P6SM OVC050=



000
FTUS43 KOAX 280521
TAFOFK
TAF
KOFK 280521Z 2806/0106 16009KT P6SM BKN120
     FM281500 18012KT P6SM OVC050 PROB30 2821/2824 5SM -SN OVC015
     FM010000 18008KT P6SM OVC050=



000
FTUS43 KOAX 280521
TAFOMA
TAF
KOMA 280521Z 2806/0106 14006KT P6SM BKN120
     FM281400 15009KT P6SM OVC050 PROB30 2819/2821 5SM -SN OVC015
     FM282100 17010KT 3SM -SN OVC010
     FM010200 16007KT P6SM OVC050=



000
FTUS43 KOAX 280521
TAFOFK
TAF
KOFK 280521Z 2806/0106 16009KT P6SM BKN120
     FM281500 18012KT P6SM OVC050 PROB30 2821/2824 5SM -SN OVC015
     FM010000 18008KT P6SM OVC050=



000
FTUS43 KOAX 280521
TAFLNK
TAF
KLNK 280521Z 2806/0106 16007KT P6SM BKN100
     FM281300 17008KT P6SM OVC050 PROB30 2818/2820 5SM -SN OVC015
     FM282000 17011KT 3SM -SN OVC012
     FM010000 16008KT P6SM OVC050=



000
FTUS43 KOAX 280521
TAFOMA
TAF
KOMA 280521Z 2806/0106 14006KT P6SM BKN120
     FM281400 15009KT P6SM OVC050 PROB30 2819/2821 5SM -SN OVC015
     FM282100 17010KT 3SM -SN OVC010
     FM010200 16007KT P6SM OVC050=



000
FTUS43 KOAX 280521
TAFLNK
TAF
KLNK 280521Z 2806/0106 16007KT P6SM BKN100
     FM281300 17008KT P6SM OVC050 PROB30 2818/2820 5SM -SN OVC015
     FM282000 17011KT 3SM -SN OVC012
     FM010000 16008KT P6SM OVC050=



000
FTUS43 KOAX 280521
TAFOFK
TAF
KOFK 280521Z 2806/0106 16009KT P6SM BKN120
     FM281500 18012KT P6SM OVC050 PROB30 2821/2824 5SM -SN OVC015
     FM010000 18008KT P6SM OVC050=



000
FTUS43 KOAX 280521
TAFOMA
TAF
KOMA 280521Z 2806/0106 14006KT P6SM BKN120
     FM281400 15009KT P6SM OVC050 PROB30 2819/2821 5SM -SN OVC015
     FM282100 17010KT 3SM -SN OVC010
     FM010200 16007KT P6SM OVC050=



000
FTUS43 KOAX 280521
TAFLNK
TAF
KLNK 280521Z 2806/0106 16007KT P6SM BKN100
     FM281300 17008KT P6SM OVC050 PROB30 2818/2820 5SM -SN OVC015
     FM282000 17011KT 3SM -SN OVC012
     FM010000 16008KT P6SM OVC050=



000
FTUS43 KOAX 272320
TAFOFK
TAF
KOFK 272320Z 2800/2824 16008KT P6SM BKN150
     FM281000 16009KT P6SM BKN050
     FM281500 17012KT P6SM OVC035=



000
FTUS43 KOAX 272320
TAFLNK
TAF
KLNK 272320Z 2800/2824 14006KT P6SM BKN100
     FM281000 16005KT P6SM BKN050
     FM281300 17008KT P6SM OVC025 PROB30 2816/2819 5SM -SN OVC015
     FM281900 17011KT 3SM -SN OVC012=



000
FTUS43 KOAX 272320
TAFOMA
TAF
KOMA 272320Z 2800/2824 14006KT P6SM BKN120
     FM281400 14006KT P6SM BKN050 PROB30 2819/2824 3SM -SN OVC012=



000
FTUS43 KOAX 272320
TAFOFK
TAF
KOFK 272320Z 2800/2824 16008KT P6SM BKN150
     FM281000 16009KT P6SM BKN050
     FM281500 17012KT P6SM OVC035=



000
FTUS43 KOAX 272320
TAFOMA
TAF
KOMA 272320Z 2800/2824 14006KT P6SM BKN120
     FM281400 14006KT P6SM BKN050 PROB30 2819/2824 3SM -SN OVC012=



000
FTUS43 KOAX 272320
TAFOFK
TAF
KOFK 272320Z 2800/2824 16008KT P6SM BKN150
     FM281000 16009KT P6SM BKN050
     FM281500 17012KT P6SM OVC035=



000
FTUS43 KOAX 272320
TAFLNK
TAF
KLNK 272320Z 2800/2824 14006KT P6SM BKN100
     FM281000 16005KT P6SM BKN050
     FM281300 17008KT P6SM OVC025 PROB30 2816/2819 5SM -SN OVC015
     FM281900 17011KT 3SM -SN OVC012=



000
FTUS43 KOAX 272320
TAFLNK
TAF
KLNK 272320Z 2800/2824 14006KT P6SM BKN100
     FM281000 16005KT P6SM BKN050
     FM281300 17008KT P6SM OVC025 PROB30 2816/2819 5SM -SN OVC015
     FM281900 17011KT 3SM -SN OVC012=



000
FTUS43 KOAX 272320
TAFOMA
TAF
KOMA 272320Z 2800/2824 14006KT P6SM BKN120
     FM281400 14006KT P6SM BKN050 PROB30 2819/2824 3SM -SN OVC012=



000
FTUS43 KOAX 271720
TAFOFK
TAF
KOFK 271720Z 2718/2818 18007KT P6SM SCT250
     FM280000 14006KT P6SM BKN120
     FM280900 16006KT P6SM BKN050
     FM281500 17011KT P6SM BKN025=



000
FTUS43 KOAX 271720
TAFLNK
TAF
KLNK 271720Z 2718/2818 06004KT P6SM SCT250
     FM280000 13006KT P6SM BKN100
     FM280800 16005KT P6SM BKN050
     FM281300 17010KT P6SM OVC025=



000
FTUS43 KOAX 271720
TAFOFK
TAF
KOFK 271720Z 2718/2818 18007KT P6SM SCT250
     FM280000 14006KT P6SM BKN120
     FM280900 16006KT P6SM BKN050
     FM281500 17011KT P6SM BKN025=



000
FTUS43 KOAX 271720
TAFLNK
TAF
KLNK 271720Z 2718/2818 06004KT P6SM SCT250
     FM280000 13006KT P6SM BKN100
     FM280800 16005KT P6SM BKN050
     FM281300 17010KT P6SM OVC025=



000
FTUS43 KOAX 271720
TAFOMA
TAF
KOMA 271720Z 2718/2818 03005KT P6SM SCT250
     FM280000 14006KT P6SM BKN120
     FM281500 14006KT P6SM BKN050=



000
FTUS43 KOAX 271720
TAFOMA
TAF
KOMA 271720Z 2718/2818 03005KT P6SM SCT250
     FM280000 14006KT P6SM BKN120
     FM281500 14006KT P6SM BKN050=



000
FTUS43 KOAX 271120
TAFOFK
TAF
KOFK 271120Z 2712/2812 24004KT P6SM SKC
     FM271800 18008KT P6SM FEW250
     FM272300 16008KT P6SM SCT120=



000
FTUS43 KOAX 271120
TAFLNK
TAF
KLNK 271120Z 2712/2812 VRB04KT P6SM SKC
     FM271800 14006KT P6SM BKN150
     FM280000 13006KT P6SM BKN100=



000
FTUS43 KOAX 271120
TAFOMA
TAF
KOMA 271120Z 2712/2812 VRB04KT P6SM SKC
     FM272000 16005KT P6SM FEW250
     FM280000 14006KT P6SM BKN120=



000
FTUS43 KOAX 271120
TAFOFK
TAF
KOFK 271120Z 2712/2812 24004KT P6SM SKC
     FM271800 18008KT P6SM FEW250
     FM272300 16008KT P6SM SCT120=



000
FTUS43 KOAX 271120
TAFLNK
TAF
KLNK 271120Z 2712/2812 VRB04KT P6SM SKC
     FM271800 14006KT P6SM BKN150
     FM280000 13006KT P6SM BKN100=



000
FTUS43 KOAX 270520
TAFLNK
TAF
KLNK 270520Z 2706/2806 VRB04KT P6SM SKC
     FM271800 14004KT P6SM SKC
     FM272000 15008KT P6SM SCT150
     FM280000 13006KT P6SM BKN120=



000
FTUS43 KOAX 270520
TAFOFK
TAF
KOFK 270520Z 2706/2806 VRB04KT P6SM SKC
     FM271200 24004KT P6SM SKC
     FM271800 18008KT P6SM FEW250
     FM272300 16008KT P6SM SCT120=



000
FTUS43 KOAX 270520
TAFOMA
TAF
KOMA 270520Z 2706/2806 34005KT P6SM SKC
     FM271100 VRB04KT P6SM SKC
     FM272000 16005KT P6SM FEW250
     FM280000 14006KT P6SM SCT120=



000
FTUS43 KOAX 270520
TAFOMA
TAF
KOMA 270520Z 2706/2806 34005KT P6SM SKC
     FM271100 VRB04KT P6SM SKC
     FM272000 16005KT P6SM FEW250
     FM280000 14006KT P6SM SCT120=



000
FTUS43 KOAX 270520
TAFLNK
TAF
KLNK 270520Z 2706/2806 VRB04KT P6SM SKC
     FM271800 14004KT P6SM SKC
     FM272000 15008KT P6SM SCT150
     FM280000 13006KT P6SM BKN120=



000
FTUS43 KOAX 270520
TAFOFK
TAF
KOFK 270520Z 2706/2806 VRB04KT P6SM SKC
     FM271200 24004KT P6SM SKC
     FM271800 18008KT P6SM FEW250
     FM272300 16008KT P6SM SCT120=



000
FTUS43 KOAX 270520
TAFLNK
TAF
KLNK 270520Z 2706/2806 VRB04KT P6SM SKC
     FM271800 14004KT P6SM SKC
     FM272000 15008KT P6SM SCT150
     FM280000 13006KT P6SM BKN120=



000
FTUS43 KOAX 270520
TAFOMA
TAF
KOMA 270520Z 2706/2806 34005KT P6SM SKC
     FM271100 VRB04KT P6SM SKC
     FM272000 16005KT P6SM FEW250
     FM280000 14006KT P6SM SCT120=



000
FTUS43 KOAX 270520
TAFOFK
TAF
KOFK 270520Z 2706/2806 VRB04KT P6SM SKC
     FM271200 24004KT P6SM SKC
     FM271800 18008KT P6SM FEW250
     FM272300 16008KT P6SM SCT120=



000
FTUS43 KOAX 270520
TAFOFK
TAF
KOFK 270520Z 2706/2806 VRB04KT P6SM SKC
     FM271200 24004KT P6SM SKC
     FM271800 18008KT P6SM FEW250
     FM272300 16008KT P6SM SCT120=



000
FTUS43 KOAX 270520
TAFLNK
TAF
KLNK 270520Z 2706/2806 VRB04KT P6SM SKC
     FM271800 14004KT P6SM SKC
     FM272000 15008KT P6SM SCT150
     FM280000 13006KT P6SM BKN120=



000
FTUS43 KOAX 262320
TAFLNK
TAF
KLNK 262320Z 2700/2724 36012KT P6SM SCT025 BKN035
      TEMPO 2700/2702 6SM -SN BKN025
     FM270200 36010KT P6SM FEW020
     FM270800 35005KT P6SM SKC
     FM271900 16007KT P6SM SCT120=



000
FTUS43 KOAX 262320
TAFOMA
TAF
KOMA 262320Z 2700/2724 36012KT P6SM SCT025 BKN035
      TEMPO 2700/2702 6SM -SN BKN025
     FM270200 34009KT P6SM FEW020
     FM270800 34006KT P6SM SKC
     FM271400 VRB04KT P6SM SKC
     FM272000 15006KT P6SM SCT120=



000
FTUS43 KOAX 262320
TAFOMA
TAF
KOMA 262320Z 2700/2724 36012KT P6SM SCT025 BKN035
      TEMPO 2700/2702 6SM -SN BKN025
     FM270200 34009KT P6SM FEW020
     FM270800 34006KT P6SM SKC
     FM271400 VRB04KT P6SM SKC
     FM272000 15006KT P6SM SCT120=



000
FTUS43 KOAX 262320
TAFOMA
TAF
KOMA 262320Z 2700/2724 36012KT P6SM SCT025 BKN035
      TEMPO 2700/2702 6SM -SN BKN025
     FM270200 34009KT P6SM FEW020
     FM270800 34006KT P6SM SKC
     FM271400 VRB04KT P6SM SKC
     FM272000 15006KT P6SM SCT120=



000
FTUS43 KOAX 262320
TAFLNK
TAF
KLNK 262320Z 2700/2724 36012KT P6SM SCT025 BKN035
      TEMPO 2700/2702 6SM -SN BKN025
     FM270200 36010KT P6SM FEW020
     FM270800 35005KT P6SM SKC
     FM271900 16007KT P6SM SCT120=



000
FTUS43 KOAX 262320
TAFOMA
TAF
KOMA 262320Z 2700/2724 36012KT P6SM SCT025 BKN035
      TEMPO 2700/2702 6SM -SN BKN025
     FM270200 34009KT P6SM FEW020
     FM270800 34006KT P6SM SKC
     FM271400 VRB04KT P6SM SKC
     FM272000 15006KT P6SM SCT120=



000
FTUS43 KOAX 262320
TAFOFK
TAF
KOFK 262320Z 2700/2724 36012KT P6SM SCT025 BKN035
      TEMPO 2700/2702 6SM -SN BKN025
     FM270200 35008KT P6SM FEW020
     FM270800 VRB04KT P6SM SKC
     FM271600 20006KT P6SM SCT120=



000
FTUS43 KOAX 262320
TAFOFK
TAF
KOFK 262320Z 2700/2724 36012KT P6SM SCT025 BKN035
      TEMPO 2700/2702 6SM -SN BKN025
     FM270200 35008KT P6SM FEW020
     FM270800 VRB04KT P6SM SKC
     FM271600 20006KT P6SM SCT120=



000
FTUS43 KOAX 262320
TAFOFK
TAF
KOFK 262320Z 2700/2724 36012KT P6SM SCT025 BKN035
      TEMPO 2700/2702 6SM -SN BKN025
     FM270200 35008KT P6SM FEW020
     FM270800 VRB04KT P6SM SKC
     FM271600 20006KT P6SM SCT120=



000
FTUS43 KOAX 262320
TAFLNK
TAF
KLNK 262320Z 2700/2724 36012KT P6SM SCT025 BKN035
      TEMPO 2700/2702 6SM -SN BKN025
     FM270200 36010KT P6SM FEW020
     FM270800 35005KT P6SM SKC
     FM271900 16007KT P6SM SCT120=



000
FTUS43 KOAX 262309 AAB
TAFOMA
TAF AMD
KOMA 262309Z 2623/2718 35012KT P6SM SCT025 BKN035
      TEMPO 2623/2702 5SM -SN BKN025
     FM270300 34009KT P6SM FEW025
     FM270800 34006KT P6SM SKC
     FM271400 VRB04KT P6SM SKC=



000
FTUS43 KOAX 262309 AAB
TAFOMA
TAF AMD
KOMA 262309Z 2623/2718 35012KT P6SM SCT025 BKN035
      TEMPO 2623/2702 5SM -SN BKN025
     FM270300 34009KT P6SM FEW025
     FM270800 34006KT P6SM SKC
     FM271400 VRB04KT P6SM SKC=



000
FTUS43 KOAX 262309 AAB
TAFOMA
TAF AMD
KOMA 262309Z 2623/2718 35012KT P6SM SCT025 BKN035
      TEMPO 2623/2702 5SM -SN BKN025
     FM270300 34009KT P6SM FEW025
     FM270800 34006KT P6SM SKC
     FM271400 VRB04KT P6SM SKC=



000
FTUS43 KOAX 262225 AAB
TAFOFK
TAF AMD
KOFK 262225Z 2622/2718 36012KT P6SM SCT025 BKN035
      TEMPO 2622/2701 5SM -SN BKN025
     FM270200 35008KT P6SM FEW025
     FM270800 VRB04KT P6SM SKC
     FM271600 20006KT P6SM FEW150=



000
FTUS43 KOAX 262225 AAB
TAFOFK
TAF AMD
KOFK 262225Z 2622/2718 36012KT P6SM SCT025 BKN035
      TEMPO 2622/2701 5SM -SN BKN025
     FM270200 35008KT P6SM FEW025
     FM270800 VRB04KT P6SM SKC
     FM271600 20006KT P6SM FEW150=



000
FTUS43 KOAX 262225 AAB
TAFOFK
TAF AMD
KOFK 262225Z 2622/2718 36012KT P6SM SCT025 BKN035
      TEMPO 2622/2701 5SM -SN BKN025
     FM270200 35008KT P6SM FEW025
     FM270800 VRB04KT P6SM SKC
     FM271600 20006KT P6SM FEW150=



000
FTUS43 KOAX 262221 AAB
TAFLNK
TAF AMD
KLNK 262221Z 2622/2718 35012G20KT P6SM BKN035
      TEMPO 2622/2624 6SM -SN BKN025
     FM270100 36010KT P6SM FEW025
     FM270800 35005KT P6SM SKC=



000
FTUS43 KOAX 262221 AAB
TAFLNK
TAF AMD
KLNK 262221Z 2622/2718 35012G20KT P6SM BKN035
      TEMPO 2622/2624 6SM -SN BKN025
     FM270100 36010KT P6SM FEW025
     FM270800 35005KT P6SM SKC=



000
FTUS43 KOAX 261939 AAA
TAFLNK
TAF AMD
KLNK 261939Z 2620/2718 35015G22KT P6SM SCT025
      TEMPO 2620/2623 BKN025
     FM270000 35008KT P6SM SKC=



000
FTUS43 KOAX 261939 AAA
TAFOMA
TAF AMD
KOMA 261939Z 2620/2718 35014G21KT P6SM SCT025
      TEMPO 2620/2623 BKN025
     FM270000 34009KT P6SM SKC=



000
FTUS43 KOAX 261939 AAA
TAFOMA
TAF AMD
KOMA 261939Z 2620/2718 35014G21KT P6SM SCT025
      TEMPO 2620/2623 BKN025
     FM270000 34009KT P6SM SKC=



000
FTUS43 KOAX 261855 AAA
TAFOFK
TAF AMD
KOFK 261855Z 2619/2718 36014G21KT P6SM BKN025
     FM270000 35008KT P6SM SKC
     FM271500 20005KT P6SM SKC=



000
FTUS43 KOAX 261855 AAA
TAFOFK
TAF AMD
KOFK 261855Z 2619/2718 36014G21KT P6SM BKN025
     FM270000 35008KT P6SM SKC
     FM271500 20005KT P6SM SKC=



000
FTUS43 KOAX 261720
TAFOFK
TAF
KOFK 261720Z 2618/2718 36014G21KT P6SM SCT025
     FM270000 35008KT P6SM SKC
     FM271500 20005KT P6SM SKC=



000
FTUS43 KOAX 261720
TAFOMA
TAF
KOMA 261720Z 2618/2718 35015G22KT P6SM SCT020
     FM270000 34009KT P6SM SKC=



000
FTUS43 KOAX 261720
TAFLNK
TAF
KLNK 261720Z 2618/2718 35015G22KT P6SM SCT025
     FM270000 35008KT P6SM SKC=



000
FTUS43 KOAX 261720
TAFOMA
TAF
KOMA 261720Z 2618/2718 35015G22KT P6SM SCT020
     FM270000 34009KT P6SM SKC=



000
FTUS43 KOAX 261720
TAFOFK
TAF
KOFK 261720Z 2618/2718 36014G21KT P6SM SCT025
     FM270000 35008KT P6SM SKC
     FM271500 20005KT P6SM SKC=



000
FTUS43 KOAX 261720
TAFLNK
TAF
KLNK 261720Z 2618/2718 35015G22KT P6SM SCT025
     FM270000 35008KT P6SM SKC=



000
FTUS43 KOAX 261720
TAFOMA
TAF
KOMA 261720Z 2618/2718 35015G22KT P6SM SCT020
     FM270000 34009KT P6SM SKC=



000
FTUS43 KOAX 261720
TAFLNK
TAF
KLNK 261720Z 2618/2718 35015G22KT P6SM SCT025
     FM270000 35008KT P6SM SKC=



000
FTUS43 KOAX 261720
TAFOFK
TAF
KOFK 261720Z 2618/2718 36014G21KT P6SM SCT025
     FM270000 35008KT P6SM SKC
     FM271500 20005KT P6SM SKC=



000
FTUS43 KOAX 261720
TAFOFK
TAF
KOFK 261720Z 2618/2718 36014G21KT P6SM SCT025
     FM270000 35008KT P6SM SKC
     FM271500 20005KT P6SM SKC=



000
FTUS43 KOAX 261120
TAFOMA
TAF
KOMA 261120Z 2612/2712 34014G19KT P6SM SCT250
      TEMPO 2616/2620 BKN025
     FM262200 34006KT P6SM SCT030=



000
FTUS43 KOAX 261120
TAFLNK
TAF
KLNK 261120Z 2612/2712 35017G24KT P6SM SCT025
     FM262200 35011KT P6SM SCT030=



000
FTUS43 KOAX 261120
TAFOFK
TAF
KOFK 261120Z 2612/2712 34014KT P6SM SCT025
     FM261500 34015G22KT P6SM SCT020
      TEMPO 2618/2621 BKN025
     FM262200 35008KT P6SM SCT030=



000
FTUS43 KOAX 261120
TAFLNK
TAF
KLNK 261120Z 2612/2712 35017G24KT P6SM SCT025
     FM262200 35011KT P6SM SCT030=



000
FTUS43 KOAX 261120
TAFOMA
TAF
KOMA 261120Z 2612/2712 34014G19KT P6SM SCT250
      TEMPO 2616/2620 BKN025
     FM262200 34006KT P6SM SCT030=



000
FTUS43 KOAX 261120
TAFOFK
TAF
KOFK 261120Z 2612/2712 34014KT P6SM SCT025
     FM261500 34015G22KT P6SM SCT020
      TEMPO 2618/2621 BKN025
     FM262200 35008KT P6SM SCT030=



000
FTUS43 KOAX 261120
TAFOMA
TAF
KOMA 261120Z 2612/2712 34014G19KT P6SM SCT250
      TEMPO 2616/2620 BKN025
     FM262200 34006KT P6SM SCT030=



000
FTUS43 KOAX 261120
TAFOFK
TAF
KOFK 261120Z 2612/2712 34014KT P6SM SCT025
     FM261500 34015G22KT P6SM SCT020
      TEMPO 2618/2621 BKN025
     FM262200 35008KT P6SM SCT030=



000
FTUS43 KOAX 261120
TAFLNK
TAF
KLNK 261120Z 2612/2712 35017G24KT P6SM SCT025
     FM262200 35011KT P6SM SCT030=



000
FTUS43 KOAX 261120
TAFLNK
TAF
KLNK 261120Z 2612/2712 35017G24KT P6SM SCT025
     FM262200 35011KT P6SM SCT030=



000
FTUS43 KOAX 261120
TAFOFK
TAF
KOFK 261120Z 2612/2712 34014KT P6SM SCT025
     FM261500 34015G22KT P6SM SCT020
      TEMPO 2618/2621 BKN025
     FM262200 35008KT P6SM SCT030=



000
FTUS43 KOAX 260525
TAFOFK
TAF
KOFK 260525Z 2606/2706 36015G22KT P6SM SCT020 SCT120
     FM261000 34015KT P6SM SCT020 BKN150
     FM261500 34015G22KT P6SM SCT020 SCT250
     FM261800 34014KT P6SM SCT025
      TEMPO 2618/2621 BKN025=



000
FTUS43 KOAX 260525
TAFLNK
TAF
KLNK 260525Z 2606/2706 36017G24KT P6SM BKN020
     FM260900 35015G23KT P6SM SCT020 BKN100
     FM261400 34014KT P6SM SCT025 SCT100
     FM261800 35014G22KT P6SM SCT025=



000
FTUS43 KOAX 260525
TAFOMA
TAF
KOMA 260525Z 2606/2706 36015G24KT P6SM SCT015 SCT120
      TEMPO 2606/2608 BKN015
     FM261000 34015KT P6SM SCT020 BKN120
     FM261500 34014G22KT P6SM SCT025
      TEMPO 2616/2620 BKN025
     FM262100 34012KT P6SM SCT030=



000
FTUS43 KOAX 260525
TAFOFK
TAF
KOFK 260525Z 2606/2706 36015G22KT P6SM SCT020 SCT120
     FM261000 34015KT P6SM SCT020 BKN150
     FM261500 34015G22KT P6SM SCT020 SCT250
     FM261800 34014KT P6SM SCT025
      TEMPO 2618/2621 BKN025=



000
FTUS43 KOAX 260525
TAFOFK
TAF
KOFK 260525Z 2606/2706 36015G22KT P6SM SCT020 SCT120
     FM261000 34015KT P6SM SCT020 BKN150
     FM261500 34015G22KT P6SM SCT020 SCT250
     FM261800 34014KT P6SM SCT025
      TEMPO 2618/2621 BKN025=



000
FTUS43 KOAX 260525
TAFOMA
TAF
KOMA 260525Z 2606/2706 36015G24KT P6SM SCT015 SCT120
      TEMPO 2606/2608 BKN015
     FM261000 34015KT P6SM SCT020 BKN120
     FM261500 34014G22KT P6SM SCT025
      TEMPO 2616/2620 BKN025
     FM262100 34012KT P6SM SCT030=



000
FTUS43 KOAX 260525
TAFOFK
TAF
KOFK 260525Z 2606/2706 36015G22KT P6SM SCT020 SCT120
     FM261000 34015KT P6SM SCT020 BKN150
     FM261500 34015G22KT P6SM SCT020 SCT250
     FM261800 34014KT P6SM SCT025
      TEMPO 2618/2621 BKN025=



000
FTUS43 KOAX 260525
TAFOMA
TAF
KOMA 260525Z 2606/2706 36015G24KT P6SM SCT015 SCT120
      TEMPO 2606/2608 BKN015
     FM261000 34015KT P6SM SCT020 BKN120
     FM261500 34014G22KT P6SM SCT025
      TEMPO 2616/2620 BKN025
     FM262100 34012KT P6SM SCT030=



000
FTUS43 KOAX 260525
TAFLNK
TAF
KLNK 260525Z 2606/2706 36017G24KT P6SM BKN020
     FM260900 35015G23KT P6SM SCT020 BKN100
     FM261400 34014KT P6SM SCT025 SCT100
     FM261800 35014G22KT P6SM SCT025=



000
FTUS43 KOAX 260525
TAFLNK
TAF
KLNK 260525Z 2606/2706 36017G24KT P6SM BKN020
     FM260900 35015G23KT P6SM SCT020 BKN100
     FM261400 34014KT P6SM SCT025 SCT100
     FM261800 35014G22KT P6SM SCT025=



000
FTUS43 KOAX 260525
TAFOMA
TAF
KOMA 260525Z 2606/2706 36015G24KT P6SM SCT015 SCT120
      TEMPO 2606/2608 BKN015
     FM261000 34015KT P6SM SCT020 BKN120
     FM261500 34014G22KT P6SM SCT025
      TEMPO 2616/2620 BKN025
     FM262100 34012KT P6SM SCT030=



000
FTUS43 KOAX 260525
TAFLNK
TAF
KLNK 260525Z 2606/2706 36017G24KT P6SM BKN020
     FM260900 35015G23KT P6SM SCT020 BKN100
     FM261400 34014KT P6SM SCT025 SCT100
     FM261800 35014G22KT P6SM SCT025=



000
FTUS43 KOAX 260351 AAC
TAFOMA
TAF AMD
KOMA 260351Z 2604/2624 36018G28KT P6SM BKN015
      TEMPO 2604/2608 SCT015
     FM260800 34018G25KT P6SM SCT020 BKN150
     FM261500 34014G22KT P6SM SCT250=



    US Dept of Commerce
    National Oceanic and Atmospheric Administration
    National Weather Service
    1325 East West Highway
    Silver Spring, MD 20910
    Page Author: NWS Internet Services Team
Disclaimer
Information Quality
Credits
Glossary
Privacy Policy
Freedom of Information Act (FOIA)
About Us
Career Opportunities